createdAt,value
2018-04-17T00:00:49.190Z,985.96
2018-04-17T00:01:59.198Z,985.95
2018-04-17T00:03:08.932Z,985.91
2018-04-17T00:04:18.667Z,985.98
2018-04-17T00:05:28.668Z,985.99
2018-04-17T00:06:38.408Z,985.98
2018-04-17T00:07:48.407Z,985.98
2018-04-17T00:08:58.411Z,986
2018-04-17T00:10:08.437Z,986.01
2018-04-17T00:11:18.168Z,986.04
2018-04-17T00:12:28.171Z,986
2018-04-17T00:13:37.904Z,986.03
2018-04-17T00:14:47.912Z,986.02
2018-04-17T00:15:57.656Z,986.01
2018-04-17T00:17:07.674Z,986.01
2018-04-17T00:18:17.674Z,985.99
2018-04-17T00:19:27.683Z,986.02
2018-04-17T00:20:37.154Z,986.05
2018-04-17T00:21:47.159Z,985.98
2018-04-17T00:22:57.165Z,986.02
2018-04-17T00:24:06.097Z,986.02
2018-04-17T00:25:14.762Z,986.06
2018-04-17T00:26:24.501Z,985.98
2018-04-17T00:27:34.240Z,986.02
2018-04-17T00:28:44.240Z,985.98
2018-04-17T00:29:54.239Z,986.01
2018-04-17T00:31:03.437Z,986.01
2018-04-17T00:32:12.897Z,986.02
2018-04-17T00:33:22.456Z,986.07
2018-04-17T00:34:32.463Z,986.02
2018-04-17T00:35:42.470Z,986
2018-04-17T00:36:52.210Z,985.96
2018-04-17T00:38:02.214Z,986
2018-04-17T00:39:12.219Z,985.98
2018-04-17T00:40:21.425Z,985.96
2018-04-17T00:41:31.464Z,985.95
2018-04-17T00:42:41.211Z,985.93
2018-04-17T00:43:51.261Z,985.94
2018-04-17T00:45:00.995Z,985.95
2018-04-17T00:46:10.588Z,985.94
2018-04-17T00:47:20.587Z,985.9
2018-04-17T00:48:30.593Z,985.91
2018-04-17T00:49:39.850Z,985.93
2018-04-17T00:50:49.854Z,985.91
2018-04-17T00:51:59.591Z,985.94
2018-04-17T00:53:09.594Z,985.94
2018-04-17T00:54:19.597Z,985.95
2018-04-17T00:55:28.805Z,986
2018-04-17T00:56:38.537Z,985.98
2018-04-17T00:57:48.666Z,985.98
2018-04-17T00:58:58.399Z,985.95
2018-04-17T01:00:08.142Z,985.98
2018-04-17T01:01:18.165Z,985.99
2018-04-17T01:02:27.908Z,986
2018-04-17T01:03:37.645Z,985.97
2018-04-17T01:04:47.662Z,985.97
2018-04-17T01:05:57.664Z,985.99
2018-04-17T01:07:07.400Z,985.94
2018-04-17T01:08:17.405Z,985.97
2018-04-17T01:09:27.139Z,986
2018-04-17T01:10:36.881Z,985.97
2018-04-17T01:11:46.343Z,985.97
2018-04-17T01:12:56.349Z,986.04
2018-04-17T01:14:06.100Z,986.03
2018-04-17T01:15:15.841Z,986.04
2018-04-17T01:16:25.578Z,986.06
2018-04-17T01:17:35.310Z,986.05
2018-04-17T01:18:44.517Z,986.01
2018-04-17T01:19:54.518Z,985.98
2018-04-17T01:21:04.266Z,985.95
2018-04-17T01:22:13.733Z,985.97
2018-04-17T01:23:23.484Z,985.99
2018-04-17T01:24:33.482Z,985.98
2018-04-17T01:25:43.487Z,985.96
2018-04-17T01:26:53.499Z,985.99
2018-04-17T01:28:03.496Z,985.99
2018-04-17T01:29:13.232Z,985.96
2018-04-17T01:30:23.233Z,985.96
2018-04-17T01:31:33.280Z,985.97
2018-04-17T01:32:43.290Z,985.99
2018-04-17T01:33:52.755Z,985.99
2018-04-17T01:35:02.762Z,985.97
2018-04-17T01:36:12.499Z,985.96
2018-04-17T01:37:22.503Z,985.96
2018-04-17T01:38:32.507Z,985.96
2018-04-17T01:39:41.437Z,985.95
2018-04-17T01:40:51.435Z,985.97
2018-04-17T01:42:01.167Z,985.99
2018-04-17T01:43:10.904Z,985.98
2018-04-17T01:44:19.841Z,985.97
2018-04-17T01:45:29.855Z,986
2018-04-17T01:46:39.590Z,986.02
2018-04-17T01:47:49.331Z,986.02
2018-04-17T01:48:58.802Z,986.03
2018-04-17T01:50:08.804Z,986.09
2018-04-17T01:51:18.554Z,986.05
2018-04-17T01:52:28.059Z,986.06
2018-04-17T01:53:37.761Z,986.02
2018-04-17T01:54:47.769Z,986.05
2018-04-17T01:55:57.498Z,986.06
2018-04-17T01:57:07.230Z,986.05
2018-04-17T01:58:17.230Z,986.08
2018-04-17T01:59:27.328Z,986.09
2018-04-17T02:00:37.337Z,986.07
2018-04-17T02:01:46.819Z,986.05
2018-04-17T02:02:56.829Z,986.08
2018-04-17T02:04:06.564Z,986.07
2018-04-17T02:05:16.573Z,986.06
2018-04-17T02:06:26.047Z,986.07
2018-04-17T02:07:35.787Z,986.05
2018-04-17T02:08:45.791Z,986.11
2018-04-17T02:09:55.799Z,986.09
2018-04-17T02:11:05.535Z,986.13
2018-04-17T02:12:14.745Z,986.11
2018-04-17T02:13:24.470Z,986.12
2018-04-17T02:14:34.207Z,986.14
2018-04-17T02:15:43.942Z,986.14
2018-04-17T02:16:53.946Z,986.15
2018-04-17T02:18:03.696Z,986.14
2018-04-17T02:19:13.173Z,986.12
2018-04-17T02:20:23.174Z,986.18
2018-04-17T02:21:33.194Z,986.16
2018-04-17T02:22:42.925Z,986.16
2018-04-17T02:23:52.934Z,986.19
2018-04-17T02:25:02.940Z,986.17
2018-04-17T02:26:12.411Z,986.21
2018-04-17T02:27:22.149Z,986.22
2018-04-17T02:28:32.148Z,986.19
2018-04-17T02:29:42.151Z,986.2
2018-04-17T02:30:51.614Z,986.21
2018-04-17T02:32:01.648Z,986.15
2018-04-17T02:33:11.125Z,986.2
2018-04-17T02:34:21.136Z,986.19
2018-04-17T02:35:30.877Z,986.19
2018-04-17T02:36:40.900Z,986.21
2018-04-17T02:37:50.373Z,986.22
2018-04-17T02:38:59.847Z,986.21
2018-04-17T02:40:09.855Z,986.22
2018-04-17T02:41:19.324Z,986.24
2018-04-17T02:42:29.341Z,986.22
2018-04-17T02:43:39.362Z,986.16
2018-04-17T02:44:49.395Z,986.2
2018-04-17T02:45:58.595Z,986.18
2018-04-17T02:47:08.331Z,986.21
2018-04-17T02:48:18.334Z,986.17
2018-04-17T02:49:27.827Z,986.18
2018-04-17T02:50:37.841Z,986.19
2018-04-17T02:51:47.845Z,986.17
2018-04-17T02:52:57.591Z,986.2
2018-04-17T02:54:07.603Z,986.22
2018-04-17T02:55:17.622Z,986.22
2018-04-17T02:56:27.625Z,986.21
2018-04-17T02:57:37.373Z,986.22
2018-04-17T02:58:47.110Z,986.22
2018-04-17T02:59:57.122Z,986.2
2018-04-17T03:03:39.198Z,986.22
2018-04-17T03:04:49.211Z,986.21
2018-04-17T03:05:59.232Z,986.22
2018-04-17T03:07:08.735Z,986.21
2018-04-17T03:08:18.504Z,986.23
2018-04-17T03:09:28.511Z,986.22
2018-04-17T03:10:38.522Z,986.22
2018-04-17T03:11:48.271Z,986.23
2018-04-17T03:12:58.271Z,986.22
2018-04-17T03:14:08.297Z,986.24
2018-04-17T03:15:18.299Z,986.27
2018-04-17T03:16:28.297Z,986.25
2018-04-17T03:17:37.768Z,986.28
2018-04-17T03:18:47.761Z,986.24
2018-04-17T03:19:57.767Z,986.22
2018-04-17T03:21:07.509Z,986.26
2018-04-17T03:22:17.521Z,986.25
2018-04-17T03:23:27.269Z,986.27
2018-04-17T03:24:37.010Z,986.25
2018-04-17T03:25:47.013Z,986.24
2018-04-17T03:26:57.222Z,986.26
2018-04-17T03:28:07.224Z,986.26
2018-04-17T03:29:16.959Z,986.24
2018-04-17T03:30:26.423Z,986.26
2018-04-17T03:31:36.171Z,986.24
2018-04-17T03:32:46.174Z,986.29
2018-04-17T03:33:56.171Z,986.28
2018-04-17T03:35:05.926Z,986.28
2018-04-17T03:36:15.933Z,986.27
2018-04-17T03:37:25.933Z,986.32
2018-04-17T03:38:35.688Z,986.3
2018-04-17T03:39:45.693Z,986.33
2018-04-17T03:40:54.897Z,986.33
2018-04-17T03:42:04.904Z,986.4
2018-04-17T03:43:14.914Z,986.42
2018-04-17T03:44:24.651Z,986.41
2018-04-17T03:45:33.853Z,986.41
2018-04-17T03:46:43.591Z,986.4
2018-04-17T03:47:53.607Z,986.39
2018-04-17T03:49:03.342Z,986.45
2018-04-17T03:50:13.083Z,986.43
2018-04-17T03:51:23.098Z,986.44
2018-04-17T03:52:32.837Z,986.41
2018-04-17T03:53:42.839Z,986.45
2018-04-17T03:54:52.841Z,986.44
2018-04-17T03:56:02.593Z,986.4
2018-04-17T03:57:12.337Z,986.43
2018-04-17T03:58:21.815Z,986.45
2018-04-17T03:59:31.552Z,986.48
2018-04-17T04:00:41.293Z,986.47
2018-04-17T04:01:51.044Z,986.5
2018-04-17T04:03:01.058Z,986.48
2018-04-17T04:04:11.060Z,986.5
2018-04-17T04:05:21.056Z,986.48
2018-04-17T04:06:31.067Z,986.45
2018-04-17T04:07:40.805Z,986.48
2018-04-17T04:08:50.802Z,986.47
2018-04-17T04:10:00.812Z,986.49
2018-04-17T04:11:10.819Z,986.52
2018-04-17T04:12:19.752Z,986.53
2018-04-17T04:13:29.487Z,986.56
2018-04-17T04:14:38.687Z,986.58
2018-04-17T04:15:48.432Z,986.53
2018-04-17T04:16:58.436Z,986.57
2018-04-17T04:18:08.171Z,986.52
2018-04-17T04:19:17.906Z,986.59
2018-04-17T04:20:27.644Z,986.59
2018-04-17T04:21:37.664Z,986.6
2018-04-17T04:22:47.664Z,986.56
2018-04-17T04:23:57.403Z,986.56
2018-04-17T04:25:07.147Z,986.59
2018-04-17T04:26:16.887Z,986.61
2018-04-17T04:27:26.645Z,986.61
2018-04-17T04:28:36.488Z,986.62
2018-04-17T04:29:45.961Z,986.63
2018-04-17T04:30:55.753Z,986.62
2018-04-17T04:32:05.766Z,986.67
2018-04-17T04:33:15.784Z,986.68
2018-04-17T04:34:25.805Z,986.69
2018-04-17T04:35:35.276Z,986.71
2018-04-17T04:36:45.276Z,986.74
2018-04-17T04:37:54.476Z,986.78
2018-04-17T04:39:04.210Z,986.84
2018-04-17T04:40:14.218Z,986.86
2018-04-17T04:41:23.698Z,986.88
2018-04-17T04:42:33.705Z,986.87
2018-04-17T04:43:43.180Z,986.88
2018-04-17T04:44:52.917Z,986.88
2018-04-17T04:46:02.117Z,986.93
2018-04-17T04:47:12.127Z,986.88
2018-04-17T04:48:21.865Z,986.92
2018-04-17T04:49:31.602Z,986.92
2018-04-17T04:50:41.088Z,986.93
2018-04-17T04:51:50.561Z,986.93
2018-04-17T04:53:00.302Z,986.92
2018-04-17T04:54:10.304Z,986.94
2018-04-17T04:55:20.317Z,986.97
2018-04-17T04:56:30.104Z,986.99
2018-04-17T04:57:39.600Z,986.98
2018-04-17T04:58:49.680Z,986.97
2018-04-17T04:59:59.413Z,986.98
2018-04-17T05:01:09.157Z,987.01
2018-04-17T05:02:18.905Z,987
2018-04-17T05:03:28.374Z,986.99
2018-04-17T05:04:38.115Z,986.99
2018-04-17T05:05:48.166Z,987.03
2018-04-17T05:06:57.901Z,987.04
2018-04-17T05:08:07.645Z,987.05
2018-04-17T05:09:17.660Z,987.03
2018-04-17T05:10:27.138Z,987.03
2018-04-17T05:11:37.143Z,987.05
2018-04-17T05:12:47.152Z,987.09
2018-04-17T05:13:57.000Z,987.08
2018-04-17T05:15:07.001Z,987.11
2018-04-17T05:16:16.738Z,987.13
2018-04-17T05:17:26.742Z,987.1
2018-04-17T05:18:36.480Z,987.14
2018-04-17T05:19:46.493Z,987.14
2018-04-17T05:20:56.240Z,987.15
2018-04-17T05:22:05.985Z,987.14
2018-04-17T05:23:15.189Z,987.15
2018-04-17T05:24:24.658Z,987.21
2018-04-17T05:25:33.857Z,987.17
2018-04-17T05:26:43.062Z,987.23
2018-04-17T05:27:52.799Z,987.21
2018-04-17T05:29:02.537Z,987.21
2018-04-17T05:30:12.277Z,987.21
2018-04-17T05:31:22.283Z,987.24
2018-04-17T05:32:32.285Z,987.32
2018-04-17T05:33:42.023Z,987.3
2018-04-17T05:34:52.031Z,987.32
2018-04-17T05:36:02.036Z,987.33
2018-04-17T05:37:11.777Z,987.3
2018-04-17T05:38:21.519Z,987.33
2018-04-17T05:39:31.530Z,987.34
2018-04-17T05:40:41.541Z,987.37
2018-04-17T05:41:51.558Z,987.4
2018-04-17T05:43:01.328Z,987.43
2018-04-17T05:44:11.075Z,987.44
2018-04-17T05:45:21.098Z,987.48
2018-04-17T05:46:30.846Z,987.51
2018-04-17T05:47:40.585Z,987.51
2018-04-17T05:48:50.324Z,987.53
2018-04-17T05:50:00.328Z,987.51
2018-04-17T05:51:09.862Z,987.51
2018-04-17T05:52:19.599Z,987.53
2018-04-17T05:53:29.339Z,987.51
2018-04-17T05:54:39.352Z,987.57
2018-04-17T05:55:49.221Z,987.53
2018-04-17T05:56:59.408Z,987.54
2018-04-17T05:58:09.142Z,987.56
2018-04-17T05:59:19.147Z,987.55
2018-04-17T06:00:28.908Z,987.61
2018-04-17T06:01:38.928Z,987.59
2018-04-17T06:02:48.671Z,987.58
2018-04-17T06:03:58.680Z,987.6
2018-04-17T06:05:08.196Z,987.65
2018-04-17T06:06:17.774Z,987.63
2018-04-17T06:07:27.787Z,987.6
2018-04-17T06:08:37.803Z,987.61
2018-04-17T06:09:47.536Z,987.62
2018-04-17T06:10:57.288Z,987.6
2018-04-17T06:12:07.077Z,987.62
2018-04-17T06:13:16.544Z,987.66
2018-04-17T06:14:26.567Z,987.64
2018-04-17T06:15:36.308Z,987.68
2018-04-17T06:16:46.051Z,987.67
2018-04-17T06:17:55.812Z,987.68
2018-04-17T06:19:05.553Z,987.7
2018-04-17T06:20:15.556Z,987.67
2018-04-17T06:21:25.036Z,987.71
2018-04-17T06:22:34.770Z,987.75
2018-04-17T06:23:44.794Z,987.76
2018-04-17T06:24:54.795Z,987.73
2018-04-17T06:26:04.836Z,987.77
2018-04-17T06:27:15.119Z,987.76
2018-04-17T06:28:24.860Z,987.77
2018-04-17T06:29:34.861Z,987.74
2018-04-17T06:30:44.882Z,987.72
2018-04-17T06:31:54.893Z,987.76
2018-04-17T06:33:04.900Z,987.78
2018-04-17T06:34:14.905Z,987.8
2018-04-17T06:35:24.665Z,987.8
2018-04-17T06:36:34.135Z,987.78
2018-04-17T06:37:43.875Z,987.83
2018-04-17T06:38:53.649Z,987.8
2018-04-17T06:40:03.125Z,987.81
2018-04-17T06:41:12.867Z,987.8
2018-04-17T06:42:22.881Z,987.78
2018-04-17T06:43:32.082Z,987.81
2018-04-17T06:44:42.091Z,987.75
2018-04-17T06:45:52.098Z,987.77
2018-04-17T06:47:01.838Z,987.79
2018-04-17T06:48:11.039Z,987.81
2018-04-17T06:49:21.038Z,987.87
2018-04-17T06:50:30.776Z,987.88
2018-04-17T06:51:40.793Z,987.88
2018-04-17T06:52:50.546Z,987.9
2018-04-17T06:54:00.376Z,987.86
2018-04-17T06:55:10.132Z,987.94
2018-04-17T06:56:19.603Z,987.94
2018-04-17T06:57:29.355Z,987.89
2018-04-17T06:58:38.829Z,987.9
2018-04-17T06:59:48.573Z,987.9
2018-04-17T07:00:58.314Z,987.89
2018-04-17T07:02:08.048Z,987.92
2018-04-17T07:03:17.530Z,987.94
2018-04-17T07:04:27.683Z,987.88
2018-04-17T07:05:37.427Z,987.91
2018-04-17T07:06:47.167Z,987.92
2018-04-17T07:07:57.170Z,987.91
2018-04-17T07:09:06.910Z,987.96
2018-04-17T07:10:16.919Z,987.95
2018-04-17T07:11:26.120Z,987.98
2018-04-17T07:12:35.882Z,987.98
2018-04-17T07:13:45.886Z,988.01
2018-04-17T07:14:55.633Z,987.97
2018-04-17T07:16:05.380Z,987.93
2018-04-17T07:17:15.117Z,987.95
2018-04-17T07:18:25.177Z,987.92
2018-04-17T07:19:35.184Z,987.97
2018-04-17T07:20:44.926Z,987.95
2018-04-17T07:21:54.395Z,987.95
2018-04-17T07:23:04.134Z,987.97
2018-04-17T07:24:14.141Z,988.02
2018-04-17T07:25:24.149Z,987.98
2018-04-17T07:26:34.154Z,988.02
2018-04-17T07:27:43.893Z,988.01
2018-04-17T07:28:53.895Z,988.12
2018-04-17T07:30:03.633Z,988.06
2018-04-17T07:31:13.160Z,988.07
2018-04-17T07:32:22.901Z,988.11
2018-04-17T07:33:32.917Z,988.07
2018-04-17T07:34:42.991Z,988.1
2018-04-17T07:35:52.251Z,988.11
2018-04-17T07:37:02.364Z,988.15
2018-04-17T07:38:12.376Z,988.14
2018-04-17T07:39:22.376Z,988.15
2018-04-17T07:40:32.507Z,988.13
2018-04-17T07:41:42.841Z,988.13
2018-04-17T07:42:52.587Z,988.13
2018-04-17T07:44:02.378Z,988.16
2018-04-17T07:45:12.115Z,988.15
2018-04-17T07:46:22.124Z,988.19
2018-04-17T07:47:32.137Z,988.2
2018-04-17T07:48:41.978Z,988.2
2018-04-17T07:49:51.714Z,988.19
2018-04-17T07:51:01.182Z,988.21
2018-04-17T07:52:11.190Z,988.21
2018-04-17T07:53:21.195Z,988.25
2018-04-17T07:54:30.943Z,988.27
2018-04-17T07:55:39.902Z,988.28
2018-04-17T07:56:49.824Z,988.32
2018-04-17T07:57:59.560Z,988.37
2018-04-17T07:59:09.032Z,988.31
2018-04-17T08:00:19.049Z,988.34
2018-04-17T08:01:29.055Z,988.32
2018-04-17T08:02:38.804Z,988.29
2018-04-17T08:03:48.807Z,988.29
2018-04-17T08:04:58.552Z,988.28
2018-04-17T08:06:08.294Z,988.29
2018-04-17T08:07:17.784Z,988.27
2018-04-17T08:08:27.795Z,988.26
2018-04-17T08:09:37.813Z,988.33
2018-04-17T08:10:47.555Z,988.31
2018-04-17T08:11:57.372Z,988.32
2018-04-17T08:13:07.127Z,988.31
2018-04-17T08:14:16.605Z,988.29
2018-04-17T08:15:26.635Z,988.38
2018-04-17T08:16:35.839Z,988.38
2018-04-17T08:17:45.309Z,988.42
2018-04-17T08:18:55.053Z,988.42
2018-04-17T08:20:05.055Z,988.39
2018-04-17T08:21:15.064Z,988.39
2018-04-17T08:22:25.069Z,988.37
2018-04-17T08:23:34.542Z,988.42
2018-04-17T08:24:44.545Z,988.44
2018-04-17T08:25:54.288Z,988.46
2018-04-17T08:27:03.759Z,988.48
2018-04-17T08:28:12.426Z,988.46
2018-04-17T08:29:22.192Z,988.49
2018-04-17T08:30:31.944Z,988.51
2018-04-17T08:31:41.948Z,988.49
2018-04-17T08:32:51.429Z,988.54
2018-04-17T08:34:01.236Z,988.6
2018-04-17T08:35:10.707Z,988.6
2018-04-17T08:36:20.722Z,988.6
2018-04-17T08:37:30.464Z,988.61
2018-04-17T08:38:40.475Z,988.64
2018-04-17T08:39:50.210Z,988.61
2018-04-17T08:41:00.225Z,988.6
2018-04-17T08:42:10.099Z,988.6
2018-04-17T08:43:19.982Z,988.61
2018-04-17T08:44:30.130Z,988.61
2018-04-17T08:45:39.600Z,988.61
2018-04-17T08:46:49.074Z,988.65
2018-04-17T08:47:58.812Z,988.65
2018-04-17T08:49:08.557Z,988.65
2018-04-17T08:50:18.564Z,988.65
2018-04-17T08:51:28.569Z,988.67
2018-04-17T08:52:38.657Z,988.68
2018-04-17T08:53:48.406Z,988.7
2018-04-17T08:54:58.415Z,988.71
2018-04-17T08:56:08.149Z,988.73
2018-04-17T08:57:17.359Z,988.7
2018-04-17T08:58:27.523Z,988.7
2018-04-17T08:59:37.265Z,988.73
2018-04-17T09:00:47.358Z,988.75
2018-04-17T09:01:56.834Z,988.75
2018-04-17T09:03:06.858Z,988.72
2018-04-17T09:04:16.865Z,988.77
2018-04-17T09:05:26.608Z,988.73
2018-04-17T09:06:36.346Z,988.81
2018-04-17T09:07:46.359Z,988.79
2018-04-17T09:08:55.838Z,988.8
2018-04-17T09:10:05.573Z,988.75
2018-04-17T09:11:15.318Z,988.81
2018-04-17T09:12:25.054Z,988.81
2018-04-17T09:13:34.537Z,988.82
2018-04-17T09:14:44.554Z,988.81
2018-04-17T09:15:53.769Z,988.81
2018-04-17T09:17:03.258Z,988.82
2018-04-17T09:18:13.202Z,988.82
2018-04-17T09:19:22.948Z,988.85
2018-04-17T09:20:32.694Z,988.81
2018-04-17T09:21:42.435Z,988.79
2018-04-17T09:22:52.446Z,988.78
2018-04-17T09:24:02.190Z,988.76
2018-04-17T09:25:11.934Z,988.7
2018-04-17T09:26:21.684Z,988.72
2018-04-17T09:27:31.752Z,988.73
2018-04-17T09:28:41.637Z,988.69
2018-04-17T09:29:51.374Z,988.68
2018-04-17T09:31:00.588Z,988.65
2018-04-17T09:32:10.599Z,988.69
2018-04-17T09:33:20.344Z,988.76
2018-04-17T09:34:29.888Z,988.7
2018-04-17T09:35:39.996Z,988.74
2018-04-17T09:36:50.007Z,988.73
2018-04-17T09:37:59.743Z,988.73
2018-04-17T09:39:09.859Z,988.71
2018-04-17T09:40:19.864Z,988.74
2018-04-17T09:41:29.874Z,988.78
2018-04-17T09:42:39.623Z,988.82
2018-04-17T09:43:49.677Z,988.81
2018-04-17T09:44:59.689Z,988.82
2018-04-17T09:46:09.443Z,988.81
2018-04-17T09:47:19.444Z,988.86
2018-04-17T09:48:28.925Z,988.88
2018-04-17T09:49:38.670Z,988.92
2018-04-17T09:50:48.683Z,988.89
2018-04-17T09:51:58.158Z,988.88
2018-04-17T09:53:07.631Z,988.9
2018-04-17T09:54:17.104Z,988.89
2018-04-17T09:55:26.850Z,988.82
2018-04-17T09:56:36.868Z,988.82
2018-04-17T09:57:46.883Z,988.85
2018-04-17T09:58:56.092Z,988.84
2018-04-17T10:00:05.574Z,988.86
2018-04-17T10:01:15.589Z,988.82
2018-04-17T10:02:25.612Z,988.83
2018-04-17T10:03:35.650Z,988.84
2018-04-17T10:04:45.677Z,988.88
2018-04-17T10:05:55.698Z,988.85
2018-04-17T10:07:05.439Z,988.9
2018-04-17T10:08:15.242Z,988.86
2018-04-17T10:09:25.003Z,988.9
2018-04-17T10:10:35.017Z,988.91
2018-04-17T10:11:44.763Z,988.91
2018-04-17T10:12:54.238Z,988.96
2018-04-17T10:14:03.716Z,988.9
2018-04-17T10:15:13.471Z,988.91
2018-04-17T10:16:23.479Z,988.9
2018-04-17T10:17:32.689Z,988.89
2018-04-17T10:18:42.436Z,988.86
2018-04-17T10:19:52.449Z,988.9
2018-04-17T10:21:01.388Z,988.94
2018-04-17T10:22:11.133Z,988.95
2018-04-17T10:23:20.881Z,988.94
2018-04-17T10:24:30.624Z,988.94
2018-04-17T10:25:40.361Z,988.97
2018-04-17T10:26:50.377Z,988.98
2018-04-17T10:28:00.118Z,988.94
2018-04-17T10:29:09.599Z,988.96
2018-04-17T10:30:19.130Z,988.97
2018-04-17T10:31:29.368Z,989.02
2018-04-17T10:32:39.117Z,988.95
2018-04-17T10:33:49.133Z,989.04
2018-04-17T10:34:58.879Z,988.99
2018-04-17T10:36:08.668Z,988.98
2018-04-17T10:37:18.526Z,988.96
2018-04-17T10:38:28.275Z,989
2018-04-17T10:39:37.761Z,988.98
2018-04-17T10:40:48.028Z,989
2018-04-17T10:41:58.033Z,989.02
2018-04-17T10:43:08.038Z,989.03
2018-04-17T10:44:17.783Z,989.02
2018-04-17T10:45:26.739Z,988.97
2018-04-17T10:46:36.764Z,988.93
2018-04-17T10:47:46.238Z,988.93
2018-04-17T10:48:55.724Z,988.93
2018-04-17T10:50:05.208Z,988.88
2018-04-17T10:51:14.956Z,988.82
2018-04-17T10:52:24.163Z,988.79
2018-04-17T10:53:33.918Z,988.77
2018-04-17T10:54:43.419Z,988.77
2018-04-17T10:55:53.208Z,988.73
2018-04-17T10:57:03.223Z,988.72
2018-04-17T10:58:13.229Z,988.7
2018-04-17T10:59:23.246Z,988.68
2018-04-17T11:00:33.088Z,988.66
2018-04-17T11:01:42.573Z,988.67
2018-04-17T11:02:52.321Z,988.7
2018-04-17T11:04:01.805Z,988.74
2018-04-17T11:05:11.423Z,988.73
2018-04-17T11:06:21.493Z,988.77
2018-04-17T11:07:30.972Z,988.72
2018-04-17T11:08:40.724Z,988.69
2018-04-17T11:09:50.741Z,988.72
2018-04-17T11:11:00.826Z,988.77
2018-04-17T11:12:10.297Z,988.81
2018-04-17T11:13:20.040Z,988.88
2018-04-17T11:14:30.056Z,988.9
2018-04-17T11:15:40.072Z,988.91
2018-04-17T11:16:50.078Z,988.9
2018-04-17T11:17:59.843Z,988.94
2018-04-17T11:19:09.588Z,988.99
2018-04-17T11:20:19.599Z,988.99
2018-04-17T11:21:29.347Z,989.01
2018-04-17T11:22:39.089Z,988.93
2018-04-17T11:23:48.557Z,988.96
2018-04-17T11:24:58.571Z,989.06
2018-04-17T11:26:08.315Z,989.01
2018-04-17T11:27:18.329Z,988.89
2018-04-17T11:28:28.344Z,988.93
2018-04-17T11:29:38.363Z,988.96
2018-04-17T11:30:48.379Z,989.04
2018-04-17T11:31:58.129Z,988.93
2018-04-17T11:33:08.145Z,988.96
2018-04-17T11:34:18.181Z,988.9
2018-04-17T11:35:27.697Z,988.94
2018-04-17T11:36:37.178Z,988.96
2018-04-17T11:37:47.195Z,988.9
2018-04-17T11:38:56.949Z,989
2018-04-17T11:40:06.715Z,989.05
2018-04-17T11:41:16.733Z,989.02
2018-04-17T11:42:26.482Z,988.81
2018-04-17T11:43:36.237Z,989.07
2018-04-17T11:44:46.249Z,989.05
2018-04-17T11:45:56.279Z,989.04
2018-04-17T11:47:06.127Z,989
2018-04-17T11:48:16.149Z,988.99
2018-04-17T11:49:25.897Z,989.07
2018-04-17T11:50:35.378Z,989
2018-04-17T11:51:45.400Z,989.1
2018-04-17T11:52:55.430Z,989.07
2018-04-17T11:54:05.186Z,989.02
2018-04-17T11:55:14.669Z,989.07
2018-04-17T11:56:24.749Z,988.97
2018-04-17T11:57:34.843Z,989.02
2018-04-17T11:58:44.544Z,988.98
2018-04-17T11:59:54.041Z,989.03
2018-04-17T12:01:03.528Z,989.05
2018-04-17T12:02:13.276Z,989.06
2018-04-17T12:03:23.472Z,989
2018-04-17T12:04:32.959Z,988.98
2018-04-17T12:05:42.441Z,989.05
2018-04-17T12:06:51.929Z,989.09
2018-04-17T12:08:01.411Z,989.01
2018-04-17T12:09:11.178Z,988.99
2018-04-17T12:10:21.203Z,989.02
2018-04-17T12:11:30.686Z,989.08
2018-04-17T12:12:40.709Z,989.08
2018-04-17T12:13:50.758Z,989.14
2018-04-17T12:15:00.516Z,989.17
2018-04-17T12:16:10.265Z,989.09
2018-04-17T12:17:20.314Z,989.06
2018-04-17T12:18:30.080Z,989.17
2018-04-17T12:19:39.842Z,989.1
2018-04-17T12:20:49.365Z,989.07
2018-04-17T12:21:59.131Z,989.1
2018-04-17T12:23:09.169Z,989.17
2018-04-17T12:24:18.922Z,989.07
2018-04-17T12:25:28.682Z,989.12
2018-04-17T12:26:38.705Z,989.16
2018-04-17T12:27:47.660Z,989.07
2018-04-17T12:28:57.679Z,989.12
2018-04-17T12:30:07.437Z,989.21
2018-04-17T12:31:17.192Z,989.15
2018-04-17T12:32:26.682Z,989.12
2018-04-17T12:33:36.764Z,989.11
2018-04-17T12:34:46.521Z,989.13
2018-04-17T12:35:56.280Z,989.16
2018-04-17T12:37:06.038Z,989.21
2018-04-17T12:38:15.521Z,989.15
2018-04-17T12:39:25.379Z,989.15
2018-04-17T12:40:35.146Z,989.16
2018-04-17T12:41:44.916Z,989.18
2018-04-17T12:42:54.943Z,989.2
2018-04-17T12:44:04.961Z,989.24
2018-04-17T12:45:15.092Z,989.3
2018-04-17T12:46:24.592Z,989.33
2018-04-17T12:47:34.617Z,989.3
2018-04-17T12:48:44.380Z,989.33
2018-04-17T12:49:54.131Z,989.32
2018-04-17T12:51:03.634Z,989.32
2018-04-17T12:52:13.395Z,989.34
2018-04-17T12:53:23.428Z,989.34
2018-04-17T12:54:32.922Z,989.36
2018-04-17T12:55:42.699Z,989.33
2018-04-17T12:56:52.458Z,989.34
2018-04-17T12:58:02.217Z,989.31
2018-04-17T12:59:11.974Z,989.35
2018-04-17T13:00:21.996Z,989.37
2018-04-17T13:01:31.493Z,989.35
2018-04-17T13:02:41.520Z,989.39
2018-04-17T13:03:51.554Z,989.38
2018-04-17T13:05:01.595Z,989.35
2018-04-17T13:06:11.357Z,989.29
2018-04-17T13:07:21.116Z,989.28
2018-04-17T13:08:31.142Z,989.27
2018-04-17T13:09:40.896Z,989.23
2018-04-17T13:10:50.654Z,989.28
2018-04-17T13:12:00.697Z,989.18
2018-04-17T13:13:10.457Z,989.24
2018-04-17T13:14:20.489Z,989.21
2018-04-17T13:15:30.248Z,989.21
2018-04-17T13:16:39.794Z,989.2
2018-04-17T13:17:49.019Z,989.09
2018-04-17T13:18:59.046Z,989.11
2018-04-17T13:20:08.825Z,989.05
2018-04-17T13:21:18.855Z,989.03
2018-04-17T13:22:28.892Z,989.06
2018-04-17T13:23:38.389Z,989.08
2018-04-17T13:24:48.153Z,989.13
2018-04-17T13:25:58.286Z,989.17
2018-04-17T13:27:08.053Z,989.19
2018-04-17T13:28:17.817Z,989.19
2018-04-17T13:29:27.329Z,989.22
2018-04-17T13:30:37.091Z,989.26
2018-04-17T13:31:46.314Z,989.29
2018-04-17T13:32:56.075Z,989.22
2018-04-17T13:34:05.866Z,989.25
2018-04-17T13:35:15.363Z,989.28
2018-04-17T13:36:25.415Z,989.26
2018-04-17T13:37:35.357Z,989.24
2018-04-17T13:38:45.393Z,989.28
2018-04-17T13:39:55.156Z,989.29
2018-04-17T13:41:04.923Z,989.23
2018-04-17T13:42:14.414Z,989.22
2018-04-17T13:43:24.302Z,989.19
2018-04-17T13:44:34.328Z,989.18
2018-04-17T13:45:44.372Z,989.19
2018-04-17T13:46:53.867Z,989.22
2018-04-17T13:48:03.629Z,989.3
2018-04-17T13:49:13.716Z,989.22
2018-04-17T13:50:23.468Z,989.26
2018-04-17T13:51:33.498Z,989.25
2018-04-17T13:52:43.527Z,989.26
2018-04-17T13:53:53.025Z,989.23
2018-04-17T13:55:02.782Z,989.21
2018-04-17T13:56:12.861Z,989.32
2018-04-17T13:57:22.895Z,989.27
2018-04-17T13:58:32.920Z,989.32
2018-04-17T13:59:42.682Z,989.42
2018-04-17T14:00:52.184Z,989.42
2018-04-17T14:02:01.959Z,989.4
2018-04-17T14:03:10.917Z,989.45
2018-04-17T14:04:20.961Z,989.44
2018-04-17T14:05:30.729Z,989.41
2018-04-17T14:06:40.495Z,989.48
2018-04-17T14:07:50.258Z,989.41
2018-04-17T14:09:00.285Z,989.45
2018-04-17T14:10:09.776Z,989.47
2018-04-17T14:11:19.809Z,989.47
2018-04-17T14:12:29.622Z,989.51
2018-04-17T14:13:38.854Z,989.59
2018-04-17T14:14:48.346Z,989.63
2018-04-17T14:15:58.387Z,989.57
2018-04-17T14:17:07.877Z,989.6
2018-04-17T14:18:17.873Z,989.59
2018-04-17T14:19:27.904Z,989.6
2018-04-17T14:20:37.931Z,989.59
2018-04-17T14:21:47.973Z,989.63
2018-04-17T14:22:57.468Z,989.6
2018-04-17T14:24:07.507Z,989.61
2018-04-17T14:25:17.542Z,989.58
2018-04-17T14:26:27.333Z,989.54
2018-04-17T14:27:36.563Z,989.72
2018-04-17T14:28:46.329Z,989.74
2018-04-17T14:29:56.458Z,989.89
2018-04-17T14:31:05.950Z,989.94
2018-04-17T14:32:15.980Z,989.98
2018-04-17T14:33:25.793Z,989.93
2018-04-17T14:34:35.311Z,989.85
2018-04-17T14:35:45.170Z,989.87
2018-04-17T14:36:55.196Z,989.87